createdAt,value
2019-01-06T00:01:13.664Z,101948.20
2019-01-06T00:03:43.983Z,101962.52
2019-01-06T00:06:19.782Z,101961.44
2019-01-06T00:08:51.074Z,101966.98
2019-01-06T00:11:30.236Z,101956.90
2019-01-06T00:14:17.965Z,101961.50
2019-01-06T00:16:48.624Z,101961.06
2019-01-06T00:19:27.934Z,101957.27
2019-01-06T00:22:04.074Z,101962.59
2019-01-06T00:24:44.466Z,101964.80
2019-01-06T00:27:17.756Z,101973.26
2019-01-06T00:29:48.026Z,101977.64
2019-01-06T00:32:24.024Z,101971.59
2019-01-06T00:34:56.940Z,101976.50
2019-01-06T00:37:27.139Z,101977.97
2019-01-06T00:40:13.787Z,101985.89
2019-01-06T00:42:44.086Z,101983.21
2019-01-06T00:45:17.377Z,101980.59
2019-01-06T00:47:47.580Z,101980.38
2019-01-06T00:50:20.750Z,101980.09
2019-01-06T00:52:53.679Z,101981.13
2019-01-06T00:55:42.008Z,101978.11
2019-01-06T00:58:33.278Z,101980.93
2019-01-06T01:01:10.137Z,101983.84
2019-01-06T01:03:56.786Z,101990.59
2019-01-06T01:06:29.475Z,101989.64
2019-01-06T01:09:19.388Z,101989.64
2019-01-06T01:12:06.007Z,101993.78
2019-01-06T01:14:52.581Z,102009.13
2019-01-06T01:17:39.166Z,102010.16
2019-01-06T01:20:18.610Z,102004.22
2019-01-06T01:22:51.741Z,102003.34
2019-01-06T01:25:22.423Z,102008.77
2019-01-06T01:27:55.576Z,102013.67
2019-01-06T01:30:37.888Z,102009.00
2019-01-06T01:33:24.265Z,102011.28
2019-01-06T01:35:57.743Z,102015.14
2019-01-06T01:38:30.711Z,102022.27
2019-01-06T01:41:01.354Z,102019.20
2019-01-06T01:43:31.547Z,102020.28
2019-01-06T01:46:18.239Z,102020.80
2019-01-06T01:49:00.786Z,102014.86
2019-01-06T01:51:31.061Z,102018.69
2019-01-06T01:54:07.217Z,102017.05
2019-01-06T01:56:37.451Z,102021.95
2019-01-06T01:59:22.553Z,102024.13
2019-01-06T02:01:55.691Z,102026.52
2019-01-06T02:04:25.910Z,102017.16
2019-01-06T02:07:14.048Z,102029.03
2019-01-06T02:09:53.647Z,102026.84
2019-01-06T02:12:24.038Z,102029.86
2019-01-06T02:15:09.192Z,102028.19
2019-01-06T02:17:51.217Z,102030.70
2019-01-06T02:20:37.848Z,102038.05
2019-01-06T02:23:08.093Z,102041.39
2019-01-06T02:25:41.283Z,102052.61
2019-01-06T02:28:17.236Z,102052.28
2019-01-06T02:30:50.361Z,102061.54
2019-01-06T02:33:23.259Z,102058.41
2019-01-06T02:35:53.467Z,102053.87
2019-01-06T02:38:23.664Z,102066.33
2019-01-06T02:41:10.236Z,102057.70
2019-01-06T02:43:43.647Z,102060.23
2019-01-06T02:46:26.189Z,102058.99
2019-01-06T02:49:12.466Z,102065.47
2019-01-06T02:51:54.653Z,102067.39
2019-01-06T02:54:41.377Z,102070.14
2019-01-06T02:57:17.641Z,102072.93
2019-01-06T03:00:03.104Z,102072.03
2019-01-06T03:02:36.216Z,102067.53
2019-01-06T03:05:19.544Z,102068.27
2019-01-06T03:08:04.772Z,102081.64
2019-01-06T03:10:50.877Z,102077.80
2019-01-06T03:13:29.943Z,102079.16
2019-01-06T03:16:05.914Z,102073.05
2019-01-06T03:18:52.323Z,102083.33
2019-01-06T03:21:31.205Z,102082.05
2019-01-06T03:24:01.494Z,102080.87
2019-01-06T03:26:31.700Z,102081.58
2019-01-06T03:29:10.703Z,102082.43
2019-01-06T03:31:43.881Z,102085.77
2019-01-06T03:34:14.526Z,102081.47
2019-01-06T03:36:59.477Z,102091.58
2019-01-06T03:39:35.428Z,102092.52
2019-01-06T03:42:21.820Z,102085.55
2019-01-06T03:44:52.478Z,102088.90
2019-01-06T03:47:28.873Z,102084.95
2019-01-06T03:50:15.253Z,102090.58
2019-01-06T03:53:01.658Z,102089.66
2019-01-06T03:55:47.134Z,102094.75
2019-01-06T04:01:09.131Z,102099.58
2019-01-06T04:03:39.335Z,102103.64
2019-01-06T04:06:09.625Z,102109.69
2019-01-06T04:08:45.540Z,102111.38
2019-01-06T04:11:15.854Z,102106.41
2019-01-06T04:14:02.209Z,102105.36
2019-01-06T04:16:35.173Z,102105.53
2019-01-06T04:19:14.604Z,102105.99
2019-01-06T04:21:44.830Z,102106.73
2019-01-06T04:24:30.852Z,102106.31
2019-01-06T04:27:01.445Z,102103.39
2019-01-06T04:29:49.552Z,102102.25
2019-01-06T04:32:36.146Z,102105.75
2019-01-06T04:35:09.492Z,102104.00
2019-01-06T04:37:57.683Z,102105.97
2019-01-06T04:40:34.553Z,102102.23
2019-01-06T04:43:13.630Z,102107.11
2019-01-06T04:45:43.881Z,102099.25
2019-01-06T04:48:26.051Z,102114.61
2019-01-06T04:51:02.174Z,102115.13
2019-01-06T04:53:32.398Z,102109.69
2019-01-06T04:56:14.608Z,102108.78
2019-01-06T04:58:47.939Z,102114.70
2019-01-06T05:01:24.394Z,102109.19
2019-01-06T05:04:10.955Z,102111.78
2019-01-06T05:06:57.576Z,102111.45
2019-01-06T05:09:30.637Z,102121.16
2019-01-06T05:12:13.214Z,102120.61
2019-01-06T05:14:58.712Z,102119.58
2019-01-06T05:17:37.940Z,102118.35
2019-01-06T05:20:11.041Z,102124.61
2019-01-06T05:22:47.443Z,102121.90
2019-01-06T05:25:33.791Z,102133.36
2019-01-06T05:28:04.395Z,102124.50
2019-01-06T05:30:37.852Z,102126.27
2019-01-06T05:33:24.674Z,102129.25
2019-01-06T05:36:11.300Z,102129.08
2019-01-06T05:38:41.481Z,102127.83
2019-01-06T05:41:26.961Z,102137.98
2019-01-06T05:43:57.177Z,102133.70
2019-01-06T05:46:33.013Z,102150.42
2019-01-06T05:49:15.164Z,102142.78
2019-01-06T05:51:54.641Z,102151.52
2019-01-06T05:54:24.860Z,102155.31
2019-01-06T05:57:03.932Z,102158.27
2019-01-06T05:59:37.205Z,102158.86
2019-01-06T06:02:07.457Z,102161.69
2019-01-06T06:04:55.633Z,102167.47
2019-01-06T06:07:32.236Z,102172.42
2019-01-06T06:10:08.766Z,102174.75
2019-01-06T06:12:55.072Z,102177.07
2019-01-06T06:15:25.247Z,102173.30
2019-01-06T06:17:55.415Z,102182.58
2019-01-06T06:20:31.346Z,102186.35
2019-01-06T06:23:01.644Z,102190.98
2019-01-06T06:25:48.073Z,102192.19
2019-01-06T06:28:24.265Z,102194.98
2019-01-06T06:31:09.752Z,102199.22
2019-01-06T06:33:48.660Z,102201.05
2019-01-06T06:36:34.974Z,102198.34
2019-01-06T06:39:23.240Z,102189.16
2019-01-06T06:41:59.767Z,102195.73
2019-01-06T06:44:29.970Z,102198.14
2019-01-06T06:47:03.207Z,102208.20
2019-01-06T06:49:49.858Z,102207.82
2019-01-06T06:52:20.059Z,102214.78
2019-01-06T06:54:59.108Z,102211.78
2019-01-06T06:58:07.401Z,102221.28
2019-01-06T07:00:57.776Z,102217.84
2019-01-06T07:03:37.021Z,102219.87
2019-01-06T07:06:24.271Z,102223.84
2019-01-06T07:09:06.403Z,102228.03
2019-01-06T07:11:42.277Z,102230.13
2019-01-06T07:14:21.407Z,102231.28
2019-01-06T07:17:46.377Z,102235.54
2019-01-06T07:20:17.852Z,102237.05
2019-01-06T07:22:54.346Z,102237.28
2019-01-06T07:25:27.657Z,102242.31
2019-01-06T07:28:01.011Z,102247.91
2019-01-06T07:30:31.214Z,102245.77
2019-01-06T07:33:01.548Z,102253.31
2019-01-06T07:35:31.743Z,102248.60
2019-01-06T07:38:01.931Z,102253.73
2019-01-06T07:40:37.980Z,102258.59
2019-01-06T07:43:13.909Z,102258.63
2019-01-06T07:45:44.142Z,102257.21
2019-01-06T07:48:26.234Z,102260.31
2019-01-06T07:51:02.520Z,102256.18
2019-01-06T07:53:33.599Z,102263.79
2019-01-06T07:56:10.136Z,102266.23
2019-01-06T07:58:49.284Z,102261.66
2019-01-06T08:01:23.081Z,102269.17
2019-01-06T08:03:56.044Z,102263.88
2019-01-06T08:06:41.232Z,102270.21
2019-01-06T08:09:27.705Z,102270.91
2019-01-06T08:12:03.966Z,102271.91
2019-01-06T08:14:50.627Z,102279.06
2019-01-06T08:17:37.167Z,102281.28
2019-01-06T08:20:16.710Z,102282.59
2019-01-06T08:23:01.729Z,102295.33
2019-01-06T08:25:47.040Z,102298.72
2019-01-06T08:28:26.215Z,102295.67
2019-01-06T08:30:56.431Z,102295.34
2019-01-06T08:33:29.267Z,102298.48
2019-01-06T08:36:16.222Z,102310.66
2019-01-06T08:38:52.335Z,102309.25
2019-01-06T08:41:22.547Z,102308.09
2019-01-06T08:43:52.734Z,102309.27
2019-01-06T08:46:26.470Z,102303.75
2019-01-06T08:49:05.583Z,102302.81
2019-01-06T08:51:41.666Z,102303.95
2019-01-06T08:54:27.930Z,102298.95
2019-01-06T08:57:13.656Z,102305.70
2019-01-06T08:59:59.982Z,102307.09
2019-01-06T09:02:46.806Z,102310.03
2019-01-06T09:05:19.692Z,102312.00
2019-01-06T09:07:52.793Z,102310.12
2019-01-06T09:10:25.784Z,102310.42
2019-01-06T09:12:59.215Z,102309.61
2019-01-06T09:15:29.600Z,102313.78
2019-01-06T09:18:06.956Z,102307.53
2019-01-06T09:20:37.635Z,102313.27
2019-01-06T09:23:19.627Z,102319.81
2019-01-06T09:25:52.425Z,102312.95
2019-01-06T09:28:31.509Z,102314.48
2019-01-06T09:31:01.800Z,102318.24
2019-01-06T09:33:34.605Z,102315.05
2019-01-06T09:36:11.013Z,102317.34
2019-01-06T09:38:57.507Z,102314.22
2019-01-06T09:41:36.857Z,102312.74
2019-01-06T09:44:10.180Z,102303.34
2019-01-06T09:46:52.491Z,102305.34
2019-01-06T09:49:39.478Z,102305.17
2019-01-06T09:52:25.903Z,102310.94
2019-01-06T09:55:01.671Z,102318.94
2019-01-06T09:57:34.610Z,102318.09
2019-01-06T10:00:21.573Z,102314.36
2019-01-06T10:02:59.149Z,102319.43
2019-01-06T10:05:45.447Z,102322.77
2019-01-06T10:08:15.637Z,102311.63
2019-01-06T10:10:57.553Z,102313.00
2019-01-06T10:13:27.745Z,102310.20
2019-01-06T10:16:10.056Z,102308.48
2019-01-06T10:18:46.426Z,102301.37
2019-01-06T10:21:19.667Z,102308.17
2019-01-06T10:24:02.050Z,102304.92
2019-01-06T10:26:41.518Z,102316.55
2019-01-06T10:32:12.966Z,102317.91
2019-01-06T10:34:59.508Z,102319.83
2019-01-06T10:37:45.860Z,102312.22
2019-01-06T10:40:16.182Z,102312.20
2019-01-06T10:43:03.409Z,102312.08
2019-01-06T10:45:48.747Z,102314.91
2019-01-06T10:48:35.321Z,102315.59
2019-01-06T10:51:15.267Z,102322.75
2019-01-06T10:53:51.901Z,102321.14
2019-01-06T10:56:22.125Z,102322.14
2019-01-06T10:59:08.469Z,102304.85
2019-01-06T11:01:41.392Z,102311.89
2019-01-06T11:04:30.271Z,102311.18
2019-01-06T11:07:00.671Z,102302.66
2019-01-06T11:09:47.093Z,102304.50
2019-01-06T11:12:26.214Z,102303.15
2019-01-06T11:14:59.386Z,102303.46
2019-01-06T11:17:29.674Z,102301.80
2019-01-06T11:20:09.723Z,102298.42
2019-01-06T11:22:40.141Z,102302.66
2019-01-06T11:25:16.965Z,102292.37
2019-01-06T11:27:53.584Z,102301.55
2019-01-06T11:30:36.455Z,102295.50
2019-01-06T11:33:22.720Z,102297.55
2019-01-06T11:36:04.987Z,102300.10
2019-01-06T11:38:35.349Z,102300.95
2019-01-06T11:41:13.865Z,102290.83
2019-01-06T11:43:53.118Z,102300.37
2019-01-06T11:46:23.532Z,102294.63
2019-01-06T11:49:10.233Z,102286.73
2019-01-06T11:51:56.754Z,102298.20
2019-01-06T11:54:29.438Z,102298.93
2019-01-06T11:57:00.828Z,102293.49
2019-01-06T11:59:47.142Z,102301.52
2019-01-06T12:02:23.378Z,102296.70
2019-01-06T12:05:09.791Z,102293.35
2019-01-06T12:07:40.001Z,102297.38
2019-01-06T12:10:16.151Z,102303.85
2019-01-06T12:12:46.477Z,102296.50
2019-01-06T12:15:26.284Z,102297.05
2019-01-06T12:18:05.751Z,102296.66
2019-01-06T12:20:45.267Z,102296.77
2019-01-06T12:23:25.940Z,102296.21
2019-01-06T12:26:13.762Z,102289.30
2019-01-06T12:29:01.004Z,102296.34
2019-01-06T12:31:33.292Z,102298.95
2019-01-06T12:34:03.483Z,102301.33
2019-01-06T12:39:41.981Z,102303.58
2019-01-06T12:42:28.330Z,102301.86
2019-01-06T12:45:15.090Z,102306.39
2019-01-06T12:47:48.532Z,102304.76
2019-01-06T12:50:21.849Z,102310.31
2019-01-06T12:52:54.811Z,102307.30
2019-01-06T12:55:28.117Z,102302.31
2019-01-06T12:57:58.817Z,102308.14
2019-01-06T13:00:31.731Z,102306.28
2019-01-06T13:03:07.805Z,102318.09
2019-01-06T13:05:47.321Z,102315.27
2019-01-06T13:08:26.830Z,102319.99
2019-01-06T13:10:58.218Z,102327.80
2019-01-06T13:13:37.047Z,102327.03
2019-01-06T13:16:08.304Z,102324.17
2019-01-06T13:18:47.884Z,102326.73
2019-01-06T13:21:18.962Z,102333.38
2019-01-06T13:24:06.447Z,102329.09
2019-01-06T13:26:50.340Z,102329.59
2019-01-06T13:29:22.856Z,102330.70
2019-01-06T13:31:53.191Z,102331.20
2019-01-06T13:34:26.662Z,102333.81
2019-01-06T13:37:14.214Z,102323.58
2019-01-06T13:40:01.295Z,102322.98
2019-01-06T13:42:32.266Z,102326.50
2019-01-06T13:45:18.813Z,102325.95
2019-01-06T13:47:53.204Z,102322.67
2019-01-06T13:50:40.491Z,102332.20
2019-01-06T13:53:26.477Z,102332.27
2019-01-06T13:56:17.166Z,102333.23
2019-01-06T13:59:04.205Z,102337.97
2019-01-06T14:01:35.346Z,102341.33
2019-01-06T14:04:17.007Z,102336.27
2019-01-06T14:06:56.652Z,102340.39
2019-01-06T14:09:36.442Z,102349.27
2019-01-06T14:12:06.995Z,102346.43
2019-01-06T14:14:37.514Z,102347.06
2019-01-06T14:17:28.488Z,102346.14
2019-01-06T14:20:16.886Z,102348.13
2019-01-06T14:23:03.839Z,102347.09
2019-01-06T14:25:43.801Z,102353.02
2019-01-06T14:28:27.177Z,102355.53
2019-01-06T14:31:16.078Z,102352.81
2019-01-06T14:33:46.876Z,102351.34
2019-01-06T14:36:32.574Z,102345.53
2019-01-06T14:39:10.542Z,102338.96
2019-01-06T14:41:51.066Z,102356.48
2019-01-06T14:44:35.713Z,102358.47
2019-01-06T14:47:10.399Z,102360.75
2019-01-06T14:49:51.866Z,102363.70
2019-01-06T14:52:28.457Z,102365.90
2019-01-06T14:54:59.854Z,102367.55
2019-01-06T14:57:40.133Z,102371.01
2019-01-06T15:00:11.059Z,102376.01
2019-01-06T15:02:59.438Z,102370.05
2019-01-06T15:05:30.600Z,102375.08
2019-01-06T15:08:19.074Z,102375.60
2019-01-06T15:11:07.552Z,102372.37
2019-01-06T15:13:38.986Z,102369.11
2019-01-06T15:16:26.396Z,102372.87
2019-01-06T15:19:10.453Z,102370.57
2019-01-06T15:21:45.115Z,102375.06
2019-01-06T15:24:33.572Z,102377.35
2019-01-06T15:27:04.523Z,102373.19
2019-01-06T15:29:41.702Z,102371.41
2019-01-06T15:32:15.897Z,102375.39
2019-01-06T15:34:57.732Z,102379.14
2019-01-06T15:37:41.562Z,102386.22
2019-01-06T15:40:14.640Z,102386.67
2019-01-06T15:42:55.404Z,102392.59
2019-01-06T15:45:28.791Z,102389.13
2019-01-06T15:48:00.722Z,102389.67
2019-01-06T15:50:48.893Z,102381.91
2019-01-06T15:53:29.297Z,102378.49
2019-01-06T15:56:13.847Z,102378.05
2019-01-06T15:59:01.939Z,102382.22
2019-01-06T16:01:42.276Z,102388.95
2019-01-06T16:04:29.023Z,102394.19
2019-01-06T16:07:05.247Z,102387.45
2019-01-06T16:09:40.625Z,102398.97
2019-01-06T16:12:19.330Z,102398.11
2019-01-06T16:14:58.609Z,102396.84
2019-01-06T16:17:32.646Z,102391.77
2019-01-06T16:20:07.742Z,102388.37
2019-01-06T16:22:41.396Z,102397.38
2019-01-06T16:25:24.656Z,102397.19
2019-01-06T16:28:12.882Z,102394.25
2019-01-06T16:30:57.424Z,102395.55
2019-01-06T16:33:29.067Z,102398.35
2019-01-06T16:36:16.612Z,102404.39
2019-01-06T16:39:01.910Z,102406.45
2019-01-06T16:41:53.874Z,102398.03
2019-01-06T16:44:29.184Z,102395.71
2019-01-06T16:47:09.765Z,102396.74
2019-01-06T16:49:57.140Z,102395.41
2019-01-06T16:52:32.451Z,102394.19
2019-01-06T16:55:17.526Z,102392.67
2019-01-06T16:57:58.360Z,102396.44
2019-01-06T17:00:32.857Z,102395.52
2019-01-06T17:03:11.235Z,102396.86
2019-01-06T17:05:58.979Z,102395.91
2019-01-06T17:08:47.131Z,102397.80
2019-01-06T17:11:27.838Z,102404.66
2019-01-06T17:14:06.565Z,102405.52
2019-01-06T17:16:41.182Z,102407.59
2019-01-06T17:19:44.305Z,102411.44
2019-01-06T17:22:35.725Z,102404.68
2019-01-06T17:25:23.727Z,102412.64
2019-01-06T17:28:16.844Z,102407.08
2019-01-06T17:31:07.303Z,102405.72
2019-01-06T17:33:43.609Z,102404.98
2019-01-06T17:36:21.683Z,102407.03
2019-01-06T17:38:56.066Z,102413.27
2019-01-06T17:41:31.810Z,102407.52
2019-01-06T17:44:12.270Z,102414.38
2019-01-06T17:46:43.184Z,102412.80
2019-01-06T17:49:18.141Z,102413.41
2019-01-06T17:51:49.974Z,102410.09
2019-01-06T17:54:21.372Z,102421.30
2019-01-06T17:56:52.774Z,102422.76
2019-01-06T17:59:34.333Z,102420.37
2019-01-06T18:02:15.665Z,102422.38
2019-01-06T18:05:03.098Z,102412.78
2019-01-06T18:07:50.353Z,102413.69
2019-01-06T18:10:22.406Z,102411.59
2019-01-06T18:12:57.968Z,102411.30
2019-01-06T18:15:34.644Z,102421.17
2019-01-06T18:18:12.891Z,102413.26
2019-01-06T18:21:04.378Z,102425.59
2019-01-06T18:23:53.564Z,102425.31
2019-01-06T18:26:35.552Z,102416.62
2019-01-06T18:29:24.803Z,102417.53
2019-01-06T18:32:08.955Z,102414.75
2019-01-06T18:34:41.857Z,102423.56
2019-01-06T18:37:30.222Z,102424.42
2019-01-06T18:40:04.169Z,102422.73
2019-01-06T18:42:40.482Z,102427.66
2019-01-06T18:45:14.465Z,102424.92
2019-01-06T18:47:47.447Z,102427.73
2019-01-06T18:50:35.954Z,102425.44
2019-01-06T18:53:31.102Z,102418.76
2019-01-06T18:56:13.038Z,102424.02
2019-01-06T18:58:52.673Z,102422.84
2019-01-06T19:01:34.347Z,102429.63
2019-01-06T19:04:10.151Z,102423.31
2019-01-06T19:06:49.026Z,102419.57
2019-01-06T19:09:40.336Z,102423.78
2019-01-06T19:12:12.465Z,102428.83
2019-01-06T19:14:45.282Z,102425.45
2019-01-06T19:17:19.956Z,102426.29
2019-01-06T19:20:11.029Z,102418.70
2019-01-06T19:23:03.580Z,102426.29
2019-01-06T19:25:42.221Z,102430.37
2019-01-06T19:28:18.170Z,102425.31
2019-01-06T19:31:04.239Z,102436.72
2019-01-06T19:33:51.781Z,102427.69
2019-01-06T19:36:27.431Z,102432.52
2019-01-06T19:39:19.905Z,102430.22
2019-01-06T19:41:56.869Z,102437.32
2019-01-06T19:44:36.062Z,102438.23
2019-01-06T19:47:19.721Z,102439.59
2019-01-06T19:50:02.516Z,102438.27
2019-01-06T19:52:35.735Z,102440.83
2019-01-06T19:55:13.079Z,102438.39
2019-01-06T19:58:01.257Z,102437.88
2019-01-06T20:00:34.040Z,102436.77
2019-01-06T20:03:09.605Z,102438.99
2019-01-06T20:05:54.917Z,102430.97
2019-01-06T20:08:46.674Z,102431.69
2019-01-06T20:11:22.291Z,102430.27
2019-01-06T20:14:03.809Z,102431.81
2019-01-06T20:16:36.506Z,102431.27
2019-01-06T20:19:29.481Z,102430.41
2019-01-06T20:22:03.902Z,102437.20
2019-01-06T20:24:41.633Z,102435.27
2019-01-06T20:27:24.694Z,102430.73
2019-01-06T20:30:00.184Z,102430.64
2019-01-06T20:32:51.061Z,102418.60
2019-01-06T20:35:26.395Z,102423.28
2019-01-06T20:38:09.810Z,102428.75
2019-01-06T20:40:48.219Z,102414.23
2019-01-06T20:43:32.589Z,102415.70
2019-01-06T20:46:13.281Z,102407.88
2019-01-06T20:49:04.671Z,102414.60
2019-01-06T20:51:37.393Z,102415.19
2019-01-06T20:54:24.241Z,102413.86
2019-01-06T20:57:14.532Z,102414.87
2019-01-06T20:59:58.961Z,102415.67
2019-01-06T21:02:49.496Z,102402.16
2019-01-06T21:05:21.611Z,102410.28
2019-01-06T21:08:10.546Z,102416.87
2019-01-06T21:10:46.172Z,102412.42
2019-01-06T21:13:35.103Z,102414.89
2019-01-06T21:16:19.992Z,102411.81
2019-01-06T21:19:00.511Z,102418.36
2019-01-06T21:21:37.716Z,102426.83
2019-01-06T21:24:14.426Z,102420.55
2019-01-06T21:27:04.127Z,102426.97
2019-01-06T21:29:42.231Z,102427.97
2019-01-06T21:32:33.250Z,102424.41
2019-01-06T21:35:16.441Z,102423.03
2019-01-06T21:37:55.311Z,102428.18
2019-01-06T21:40:31.707Z,102423.20
2019-01-06T21:43:22.412Z,102426.09
2019-01-06T21:45:54.984Z,102424.66
2019-01-06T21:48:40.750Z,102421.71
2019-01-06T21:51:26.926Z,102429.13
2019-01-06T21:54:17.535Z,102422.78
2019-01-06T21:57:05.062Z,102415.53
2019-01-06T21:59:39.723Z,102417.13
2019-01-06T22:02:32.217Z,102426.22
2019-01-06T22:05:24.070Z,102422.55
2019-01-06T22:08:14.916Z,102417.11
2019-01-06T22:11:04.351Z,102419.08
2019-01-06T22:13:51.372Z,102418.02
2019-01-06T22:16:26.272Z,102421.66
2019-01-06T22:19:04.437Z,102422.02
2019-01-06T22:21:54.641Z,102414.06
2019-01-06T22:24:34.115Z,102412.45
2019-01-06T22:27:09.758Z,102413.81
2019-01-06T22:30:00.362Z,102408.84
2019-01-06T22:32:45.988Z,102415.16
2019-01-06T22:35:25.436Z,102409.42
2019-01-06T22:37:56.412Z,102395.83
2019-01-06T22:40:38.442Z,102404.13
2019-01-06T22:43:21.630Z,102404.34
2019-01-06T22:46:12.946Z,102400.77
2019-01-06T22:48:46.687Z,102402.98
2019-01-06T22:51:28.278Z,102402.41
2019-01-06T22:54:17.146Z,102400.47
2019-01-06T22:57:06.138Z,102407.98
2019-01-06T22:59:48.194Z,102406.05
2019-01-06T23:02:20.814Z,102405.63
2019-01-06T23:05:09.258Z,102405.73
2019-01-06T23:07:48.332Z,102404.95
2019-01-06T23:10:22.763Z,102403.60
2019-01-06T23:13:04.617Z,102404.59
2019-01-06T23:15:51.549Z,102401.73
2019-01-06T23:18:38.334Z,102403.55
2019-01-06T23:21:08.702Z,102401.73
2019-01-06T23:23:55.637Z,102408.22
2019-01-06T23:26:29.009Z,102407.45
2019-01-06T23:29:15.666Z,102408.17
2019-01-06T23:31:52.649Z,102404.20
2019-01-06T23:34:39.476Z,102409.31
2019-01-06T23:37:13.317Z,102400.30
2019-01-06T23:39:56.341Z,102390.04
2019-01-06T23:42:27.163Z,102394.57
2019-01-06T23:44:58.705Z,102392.37
2019-01-06T23:47:47.119Z,102392.35
2019-01-06T23:50:29.543Z,102385.93
2019-01-06T23:53:00.202Z,102392.98
2019-01-06T23:55:47.105Z,102395.98
2019-01-06T23:58:23.721Z,102399.26
